Nearby METAR Reports

 

YBUD - Bundaberg, Australia
Distance from station: SSW 6km
Updated: 24/07/2021 02:00
Overcast
Overcast
 Wind from NNW
Wind: NNW 24 km/h
Temperature: 20°C
Dew Point: 17°C
Humidity: 83%
Barometer: 1009 hPa
Clouds: Overcast
Visibility: 10 km
Cloud details: Mostly cloudy 457 m
Overcast 975 m
Overcast 2316 m
2021/07/23 16:00 YBUD 231600Z AUTO 33013KT 9999 // BKN015 OVC032 OVC076 20/17 Q1009
YGLA - Gladstone, Australia
Distance from station: NW 159km
Updated: 24/07/2021 02:00
Overcast
Overcast
 Wind from WNW
Wind: WNW 13 km/h
Temperature: 19°C
Dew Point: 16°C
Humidity: 83%
Barometer: 1010 hPa
Clouds: Overcast
Visibility: 10 km
Cloud details: Partly cloudy 2713 m
Overcast 3658 m
2021/07/23 16:00 YGLA 231600Z AUTO 30007KT 9999 // SCT089 OVC120 19/16 Q1010
YBRK - Rockhampton Airp, Australia
Distance from station: NW 252km
Updated: 24/07/2021 02:00
Overcast
Overcast
 Wind from calm
Wind: Calm
Temperature: 18°C
Dew Point: 16°C
Humidity: 88%
Barometer: 1010 hPa
Clouds: Overcast
Visibility: 10 km
Cloud details: Overcast 640 m
2021/07/23 16:00 YBRK 231600Z AUTO 00000KT 9999 // OVC021 18/16 Q1010
 
YBBN - Brisbane Intl Ar, Australia
Distance from station: SSE 292km
Updated: 24/07/2021 02:00
Light rain, Showers, Mostly cloudy
Light rain, Showers, Mostly cloudy
 Wind from N
Wind: N 15 km/h
Temperature: 15°C
Dew Point: 14°C
Humidity: 94%
Barometer: 1009 hPa
Summary: Light rain, Showers
Clouds: Mostly cloudy
Visibility: 10 km
Cloud details: Few Clouds 91 m
Mostly cloudy 2743 m
2021/07/23 16:00 YBBN 231600Z 36008KT 9999 -SHRA FEW003 BKN090 15/14 Q1009
YAMB - Amberley, Australia
Distance from station: S 312km
Updated: 24/07/2021 02:00
Overcast
Overcast
 Wind from calm
Wind: Calm
Temperature: 13°C
Dew Point: 13°C
Humidity: 100%
Barometer: 1008 hPa
Clouds: Overcast
Visibility: 7 km
Cloud details: Overcast 122 m
2021/07/23 16:00 YAMB 231600Z AUTO 00000KT 7000 // OVC004 13/13 Q1008
YBCG - Coolangatta Aws, Australia
Distance from station: SSE 386km
Updated: 24/07/2021 02:00
Fog, Partly cloudy
Fog, Partly cloudy
 Wind from calm
Wind: Calm
Temperature: 12°C
Dew Point: 11°C
Humidity: 94%
Barometer: 1007 hPa
Summary: Fog
Clouds: Partly cloudy
Visibility: 0 km
Cloud details: Partly cloudy 61 m
2021/07/23 16:00 YBCG 231600Z AUTO 00000KT 0250 FG SCT002 12/11 Q1007